Billings, MT (59101)

2:46 PM MDT on May 22, 2017 (GMT -0600)
Jupiter Sulphur | | Change Station

Elev 3114 ft 45.78 °N, 108.49 °W | Updated 10 minutes ago

Partly Cloudy
Partly Cloudy
67.1 °F
Feels Like 67.1 °F
N
9.0
Wind Variable Wind from NNE
Gusts 15.0 mph

Today
High -- | Low -- °F
--% Chance of Precip.
Yesterday
High -- | Low -- °F
Precip. -- in
Pressure 30.13 in
Visibility 10.0 miles
Clouds Scattered Clouds 6500 ft
Mostly Cloudy 8500 ft
Dew Point 38 °F
Humidity 34%
Rainfall 0.00 in
Snow Depth Not available.
5:34 AM 8:47 PM
Waning Crescent, 13% visible
METAR KBIL 221953Z 02014KT 10SM SCT065 BKN085 19/02 A3018 RMK AO2 PK WND 02029/1857 SLP203 OCNL LTG DSNT SW VIRGA W-N CB SHRA DSNT S-W T01890022
Pressure 30.13 in
Visibility 10.0 miles
Clouds Scattered Clouds 6500 ft
Mostly Cloudy 8500 ft
Dew Point 38 °F
Humidity 34%
Rainfall 0.00 in
Snow Depth Not available.
5:34 AM 8:47 PM
Waning Crescent, 13% visible
METAR KBIL 221953Z 02014KT 10SM SCT065 BKN085 19/02 A3018 RMK AO2 PK WND 02029/1857 SLP203 OCNL LTG DSNT SW VIRGA W-N CB SHRA DSNT S-W T01890022

Get Severe Weather Alerts

Thanks for signing up!

Be on the lookout for a verification email in your inbox.

You'll start receiving the daily forecast at 6 AM.

×

10-Day Weather Forecast

Almanac

Astronomy

May. 22, 2017 Rise Set
Actual Time
Civil Twilight
Nautical Twilight
Astronomical Twilight
Moon
Length of Visible Light
Length of Day
Tomorrow will be .
, % of the Moon is Illuminated

Today's Extremes

State Highs State Lows

Community

WunderPhotos

Category 6

Welcome to Category 6. This is the collective home for Weather Underground's featured writeups by Dr. Jeff Masters (right), Bob Henson (left), Chris Burt, and other regular contributors.

Nearby

Air Quality

  Air Quality AQ Index Pollutant
Not available.

Snow Depth

Station Depth Elevation

Earthquake Activity

City Distance Mag. Time & Date
Minimum magnitude displayed is 2.5.

Coastal Water Temperatures

Place Temperature

Stations

Nearby Weather Stations

Station Location Temp. Windchill Dew Point Humidity Wind Precip. Elev Updated Type
                   

Watches & Warnings

There are currently no watches in effect.